Time;durP1;ratioP1;P1;durP2;ratioP2;P2;SDS_P1;SDS_P2;PMS_P1;PMS_P2;Temp;Humidity;BMP_temperature;BMP_pressure;BME280_temperature;BME280_humidity;BME280_pressure;Samples;Min_cycle;Max_cycle;Signal;HPM_P1;HPM_P2
2022/12/01 02:17:46;;;;;;;8.17;5.87;;;;;;;-3.23;86.28;101270.33;1869823;75;26391;-70
2022/12/01 02:20:58;;;;;;;8.00;5.33;;;;;;;-3.20;86.17;101271.39;1840178;78;21489;-71
2022/12/01 02:24:14;;;;;;;11.97;7.17;;;;;;;-3.15;86.06;101270.06;1833841;78;21747;-70
2022/12/01 02:27:10;;;;;;;12.57;7.93;;;;;;;-3.03;85.96;101272.20;1824272;77;20956;-71
2022/12/01 02:29:53;;;;;;;17.00;8.53;;;;;;;-2.93;85.74;101270.98;1800636;78;21010;-71
2022/12/01 02:32:46;;;;;;;17.73;10.20;;;;;;;-2.86;85.52;101267.72;1827898;77;20949;-72
2022/12/01 02:35:30;;;;;;;14.93;10.03;;;;;;;-2.77;85.23;101268.76;1833051;77;20955;-72
2022/12/01 02:38:24;;;;;;;13.23;7.70;;;;;;;-2.80;84.65;101255.38;1833901;77;22214;-73
2022/12/01 02:41:12;;;;;;;10.80;7.67;;;;;;;-2.78;84.67;101261.84;1839935;78;21011;-73
2022/12/01 02:43:46;;;;;;;12.07;7.00;;;;;;;-2.84;84.16;101264.49;1825083;78;20939;-72
2022/12/01 02:46:18;;;;;;;14.07;6.67;;;;;;;-2.92;84.38;101262.10;1794959;78;20915;-75
2022/12/01 02:48:48;;;;;;;10.37;7.63;;;;;;;-2.87;84.65;101262.09;1838002;77;20996;-76
2022/12/01 02:51:27;;;;;;;12.40;8.20;;;;;;;-2.81;84.48;101266.02;1840329;77;21524;-71
2022/12/01 02:53:55;;;;;;;13.37;8.87;;;;;;;-2.82;84.14;101263.03;1839751;77;20964;-71
2022/12/01 02:56:22;;;;;;;14.47;8.67;;;;;;;-2.87;84.09;101263.41;1837305;77;21504;-71
2022/12/01 02:58:50;;;;;;;13.27;7.93;;;;;;;-2.93;84.05;101260.45;1834938;77;21014;-72
2022/12/01 03:01:32;;;;;;;16.13;7.90;;;;;;;-2.98;84.07;101261.30;1826128;77;21023;-70
2022/12/01 03:04:12;;;;;;;16.70;9.70;;;;;;;-2.98;84.25;101262.14;1833676;77;21038;-69
2022/12/01 03:07:08;;;;;;;14.30;8.10;;;;;;;-3.00;84.14;101260.11;1803581;77;20984;-73
2022/12/01 03:10:04;;;;;;;9.87;7.43;;;;;;;-3.00;84.03;101261.42;1810467;78;21027;-72
2022/12/01 03:13:07;;;;;;;13.03;8.07;;;;;;;-3.08;83.98;101261.22;1806718;79;20992;-72
2022/12/01 03:15:56;;;;;;;14.20;7.63;;;;;;;-3.15;84.24;101266.12;1798828;79;20991;-73
2022/12/01 03:18:34;;;;;;;15.50;8.63;;;;;;;-3.17;84.18;101264.59;1805240;78;21150;-74
2022/12/01 03:21:24;;;;;;;14.77;8.73;;;;;;;-3.14;84.37;101261.70;1800526;78;21002;-74
2022/12/01 03:23:55;;;;;;;12.57;6.90;;;;;;;-3.09;84.33;101263.48;1814598;78;21513;-74
2022/12/01 03:26:22;;;;;;;16.50;10.23;;;;;;;-3.02;84.27;101263.33;1787103;78;20979;-73
2022/12/01 03:28:54;;;;;;;14.93;8.10;;;;;;;-3.03;84.02;101263.47;1808911;78;21608;-73
2022/12/01 03:31:29;;;;;;;15.40;8.00;;;;;;;-3.13;83.79;101259.43;1805530;79;21023;-73
2022/12/01 03:33:59;;;;;;;15.43;7.47;;;;;;;-3.18;84.04;101260.28;1806404;79;20879;-75
2022/12/01 03:36:31;;;;;;;13.97;7.00;;;;;;;-3.20;84.17;101264.34;1794323;79;21464;-74
2022/12/01 03:39:01;;;;;;;13.20;8.13;;;;;;;-3.25;84.25;101255.13;1803922;78;21051;-74
2022/12/01 03:41:34;;;;;;;20.70;9.13;;;;;;;-3.25;84.42;101260.39;1812253;79;20943;-73
2022/12/01 03:44:11;;;;;;;16.05;8.40;;;;;;;-3.19;84.58;101267.33;1783965;79;21323;-75
2022/12/01 03:46:52;;;;;;;12.03;8.80;;;;;;;-3.21;84.22;101260.02;1806625;79;20979;-73
2022/12/01 03:49:18;;;;;;;15.10;9.27;;;;;;;-3.27;84.27;101263.17;1801584;78;20927;-73
2022/12/01 03:52:15;;;;;;;10.80;8.50;;;;;;;-3.33;84.42;101264.13;1767709;79;21701;-74
2022/12/01 03:55:00;;;;;;;18.50;8.83;;;;;;;-3.36;84.64;101259.96;1756637;80;21543;-72
2022/12/01 03:57:30;;;;;;;12.90;8.33;;;;;;;-3.33;84.88;101260.18;1777445;78;21287;-73
2022/12/01 03:59:57;;;;;;;11.70;8.37;;;;;;;-3.32;84.45;101259.23;1807002;78;21051;-72
2022/12/01 04:02:27;;;;;;;11.10;7.73;;;;;;;-3.40;84.50;101265.55;1806296;79;21069;-74
2022/12/01 04:04:54;;;;;;;10.40;7.57;;;;;;;-3.41;84.80;101258.65;1804091;79;20918;-74
2022/12/01 04:07:22;;;;;;;13.87;7.93;;;;;;;-3.39;84.73;101265.92;1792975;78;21077;-75
2022/12/01 04:09:49;;;;;;;10.57;6.93;;;;;;;-3.37;84.84;101266.17;1772845;80;22071;-74
2022/12/01 04:12:35;;;;;;;12.63;7.63;;;;;;;-3.35;84.68;101264.72;1774313;80;20986;-71
2022/12/01 04:15:00;;;;;;;;;;;;;;;-3.39;84.62;101265.44;1779359;79;20987;-74
2022/12/01 04:17:27;;;;;;;12.43;6.87;;;;;;;-3.45;84.63;101275.63;1793996;78;20193;-72
2022/12/01 04:19:54;;;;;;;13.00;7.70;;;;;;;-3.47;84.93;101269.64;1809915;79;21043;-71
2022/12/01 04:22:21;;;;;;;9.73;7.83;;;;;;;-3.46;84.92;101268.69;1791208;79;21286;-67
2022/12/01 04:24:47;;;;;;;14.80;8.40;;;;;;;-3.48;84.98;101265.33;1802787;79;21017;-75
2022/12/01 04:27:14;;;;;;;19.00;10.13;;;;;;;-3.45;85.08;101267.75;1804213;78;22302;-69
2022/12/01 04:29:44;;;;;;;17.90;11.33;;;;;;;-3.43;84.97;101271.07;1806953;79;20961;-72
2022/12/01 04:32:12;;;;;;;20.63;13.83;;;;;;;-3.40;84.75;101269.03;1807468;79;21067;-70
2022/12/01 04:34:38;;;;;;;13.73;10.10;;;;;;;-3.50;84.67;101273.34;1802733;79;21134;-70
2022/12/01 04:37:06;;;;;;;11.03;7.80;;;;;;;-3.59;84.82;101276.22;1808713;78;20991;-71
2022/12/01 04:39:33;;;;;;;14.93;9.90;;;;;;;-3.58;85.13;101277.89;1805488;78;20921;-73
2022/12/01 04:42:00;;;;;;;12.67;8.17;;;;;;;-3.54;85.21;101270.12;1809707;78;21028;-74
2022/12/01 04:44:27;;;;;;;7.67;6.10;;;;;;;-3.55;85.10;101265.81;1810433;79;21484;-72
2022/12/01 04:46:53;;;;;;;7.37;5.90;;;;;;;-3.57;85.18;101276.95;1805535;78;21261;-72
2022/12/01 04:49:20;;;;;;;13.97;7.03;;;;;;;-3.55;85.34;101266.31;1809475;78;21104;-73
2022/12/01 04:51:47;;;;;;;9.47;7.20;;;;;;;-3.54;85.20;101273.22;1809253;79;20997;-73
2022/12/01 04:54:15;;;;;;;11.87;7.70;;;;;;;-3.51;85.32;101274.31;1806954;78;21047;-73
2022/12/01 04:56:42;;;;;;;9.03;6.20;;;;;;;-3.50;85.15;101269.90;1805397;79;20977;-71
2022/12/01 04:59:08;;;;;;;9.40;6.63;;;;;;;-3.52;84.95;101275.27;1808135;79;21237;-72
2022/12/01 05:01:35;;;;;;;10.40;7.97;;;;;;;-3.52;85.09;101271.32;1807104;79;20948;-76
2022/12/01 05:04:02;;;;;;;13.37;7.63;;;;;;;-3.56;85.01;101278.63;1806071;77;21045;-71
2022/12/01 05:06:29;;;;;;;14.93;8.87;;;;;;;-3.56;85.09;101281.73;1807494;78;22208;-74
2022/12/01 05:08:58;;;;;;;12.00;7.73;;;;;;;-3.55;85.24;101276.33;1805551;79;20984;-71
2022/12/01 05:11:25;;;;;;;14.03;7.93;;;;;;;-3.54;85.14;101283.74;1807343;79;22990;-71
2022/12/01 05:13:52;;;;;;;11.50;7.20;;;;;;;-3.59;85.14;101285.42;1804642;79;20972;-73
2022/12/01 05:16:25;;;;;;;12.90;8.63;;;;;;;-3.59;85.23;101288.52;1808606;78;20953;-80
2022/12/01 05:20:55;;;;;;;16.37;11.10;;;;;;;-3.64;85.21;101285.41;1809262;79;20918;-78
2022/12/01 05:21:25;;;;;;;14.07;10.50;;;;;;;-3.73;85.36;101284.34;1804578;79;21454;-75
2022/12/01 05:23:51;;;;;;;13.50;9.40;;;;;;;-3.76;85.63;101283.28;1808166;79;21265;-81
2022/12/01 05:26:18;;;;;;;12.60;9.17;;;;;;;-3.75;85.63;101289.38;1804883;78;21041;-75
2022/12/01 05:28:44;;;;;;;13.97;8.73;;;;;;;-3.86;85.77;101282.78;1758663;79;20991;-78
2022/12/01 05:31:10;;;;;;;12.70;8.87;;;;;;;-3.88;86.06;101286.83;1808564;79;20917;-76
2022/12/01 05:33:40;;;;;;;17.50;11.40;;;;;;;-3.90;86.28;101286.61;1801335;79;21629;-78
2022/12/01 05:36:07;;;;;;;16.20;11.60;;;;;;;-3.99;86.36;101294.25;1800784;78;21240;-69
2022/12/01 05:38:34;;;;;;;14.90;10.40;;;;;;;-3.98;86.61;101292.47;1781072;80;20872;-69
2022/12/01 05:41:01;;;;;;;18.03;10.03;;;;;;;-3.99;86.73;101288.16;1791139;79;21001;-69
2022/12/01 05:43:27;;;;;;;14.77;10.30;;;;;;;-3.93;86.92;101288.17;1807305;79;21029;-69
2022/12/01 05:45:54;;;;;;;11.40;8.07;;;;;;;-3.96;86.87;101291.85;1789887;78;21015;-68
2022/12/01 05:48:21;;;;;;;11.30;8.60;;;;;;;-3.96;86.98;101301.05;1781069;80;21266;-69
2022/12/01 05:50:47;;;;;;;12.40;8.20;;;;;;;-3.93;87.19;101298.68;1780998;80;21031;-67
2022/12/01 05:53:14;;;;;;;23.23;11.57;;;;;;;-3.88;87.10;101300.48;1781040;79;20953;-67
2022/12/01 05:55:41;;;;;;;19.33;10.10;;;;;;;-3.89;86.91;101297.02;1784666;78;21437;-69
2022/12/01 05:58:08;;;;;;;10.63;7.53;;;;;;;-3.86;86.97;101296.77;1786183;80;20988;-68
2022/12/01 06:00:36;;;;;;;11.30;7.20;;;;;;;-3.79;87.02;101300.58;1786200;80;21215;-67
2022/12/01 06:03:03;;;;;;;10.07;7.40;;;;;;;-3.77;86.70;101302.63;1786013;78;20967;-69
2022/12/01 06:05:30;;;;;;;10.07;7.07;;;;;;;-3.74;86.55;101303.69;1756501;80;21031;-71
2022/12/01 06:07:57;;;;;;;10.40;7.33;;;;;;;-3.79;86.48;101300.58;1786237;80;21168;-69
2022/12/01 06:10:23;;;;;;;10.33;7.63;;;;;;;-3.74;86.42;101301.06;1786378;80;21440;-68
2022/12/01 06:12:50;;;;;;;12.57;7.53;;;;;;;-3.78;86.33;101303.57;1806677;79;21195;-68
2022/12/01 10:25:26;;;;;;;11.03;7.33;;;;;;;-0.08;72.02;101241.90;1795941;77;35799;-71
2022/12/01 10:28:29;;;;;;;9.33;7.37;;;;;;;-0.04;71.92;101248.56;1762143;80;20893;-73
2022/12/01 10:31:00;;;;;;;10.32;6.70;;;;;;;0.09;72.05;101252.23;1744460;81;21155;-75
2022/12/01 10:33:34;;;;;;;10.40;7.17;;;;;;;0.26;71.63;101250.15;1751593;81;20962;-73
2022/12/01 10:36:01;;;;;;;15.23;6.13;;;;;;;0.31;70.77;101243.45;1747263;81;21610;-73
2022/12/01 10:38:33;;;;;;;11.88;7.10;;;;;;;0.35;69.65;101235.56;1742341;80;20982;-71
2022/12/01 10:41:02;;;;;;;6.72;5.72;;;;;;;0.35;69.73;101240.02;1751527;80;20963;-72
2022/12/01 10:43:42;;;;;;;9.70;6.33;;;;;;;0.42;70.26;101234.49;1770319;80;21222;-71
2022/12/01 10:46:41;;;;;;;8.00;7.12;;;;;;;0.51;69.92;101231.45;1746125;80;21010;-73
2022/12/01 10:49:15;;;;;;;17.87;6.40;;;;;;;0.56;69.48;101232.69;1667520;85;20979;-72
2022/12/01 10:51:53;;;;;;;7.55;6.12;;;;;;;0.53;69.21;101232.95;1728385;80;20978;-74
2022/12/01 10:54:22;;;;;;;7.90;6.80;;;;;;;0.51;68.79;101227.48;1746367;80;21581;-74
2022/12/01 10:56:51;;;;;;;16.23;8.95;;;;;;;0.46;68.61;101228.41;1750508;80;21120;-75
2022/12/01 10:59:26;;;;;;;11.78;8.13;;;;;;;0.38;68.95;101231.80;1753994;81;21054;-76
2022/12/01 11:01:52;;;;;;;10.90;7.07;;;;;;;0.38;69.46;101223.86;1756762;80;20968;-77
2022/12/01 11:04:41;;;;;;;13.03;8.08;;;;;;;0.46;69.95;101227.92;1743496;80;20939;-76
2022/12/01 11:07:05;;;;;;;11.83;7.20;;;;;;;0.52;69.63;101233.96;1788203;80;21535;-76
2022/12/01 11:09:33;;;;;;;10.15;6.37;;;;;;;0.53;69.49;101224.21;1779679;80;22001;-81
2022/12/01 11:12:02;;;;;;;11.08;6.78;;;;;;;0.50;69.31;101220.03;1769853;79;22432;-76
2022/12/01 11:14:47;;;;;;;6.40;5.33;;;;;;;0.56;69.78;101223.41;1731672;80;21016;-79
2022/12/01 11:17:34;;;;;;;12.73;7.08;;;;;;;0.66;69.52;101220.23;1734649;82;21103;-76
2022/12/01 11:20:33;;;;;;;13.58;8.30;;;;;;;0.66;69.57;101215.42;1731266;81;21027;-78
2022/12/01 11:23:21;;;;;;;9.73;6.55;;;;;;;0.74;69.77;101218.98;1728846;81;21810;-76
2022/12/01 11:26:14;;;;;;;10.35;7.65;;;;;;;0.81;68.71;101217.42;1740792;80;21046;-76
2022/12/01 11:28:52;;;;;;;24.12;9.48;;;;;;;0.74;69.01;101215.02;1734281;82;21524;-73
2022/12/01 11:31:18;;;;;;;11.73;8.58;;;;;;;0.68;69.13;101217.41;1739277;81;21032;-77
2022/12/01 11:33:53;;;;;;;13.38;9.65;;;;;;;0.70;69.48;101212.33;1722528;81;21514;-75
2022/12/01 11:36:33;;;;;;;11.48;7.67;;;;;;;0.72;70.00;101210.34;1752652;80;21285;-81
2022/12/01 11:39:00;;;;;;;12.98;9.53;;;;;;;0.78;69.78;101211.08;1755570;80;21026;-75
2022/12/01 11:41:34;;;;;;;20.25;11.03;;;;;;;0.77;69.69;101209.41;1751639;80;20945;-75
2022/12/01 11:44:01;;;;;;;23.42;9.78;;;;;;;0.74;69.68;101207.06;1751483;80;20940;-73
2022/12/01 11:46:36;;;;;;;24.05;10.00;;;;;;;0.75;69.80;101209.23;1753390;81;20993;-70
2022/12/01 11:49:03;;;;;;;15.30;8.63;;;;;;;0.74;69.72;101211.53;1750803;80;21669;-75
2022/12/01 11:51:36;;;;;;;14.58;9.08;;;;;;;0.74;69.94;101201.77;1749210;82;21657;-76
2022/12/01 11:54:21;;;;;;;13.13;8.48;;;;;;;0.77;69.62;101201.95;1747182;82;20932;-80
2022/12/01 11:56:49;;;;;;;15.20;7.33;;;;;;;0.74;69.45;101202.27;1727354;81;21503;-78
2022/12/01 11:59:26;;;;;;;16.05;10.60;;;;;;;0.78;69.90;101198.33;1751163;80;21010;-76
2022/12/01 12:02:20;;;;;;;13.32;9.40;;;;;;;0.82;70.13;101196.55;1760565;80;21295;-70
2022/12/01 12:04:58;;;;;;;17.35;9.75;;;;;;;0.87;70.29;101200.08;1749421;82;21595;-78
2022/12/01 12:07:58;;;;;;;14.70;9.20;;;;;;;0.84;69.97;101199.89;1663345;83;21034;-71
2022/12/01 12:10:33;;;;;;;16.55;9.10;;;;;;;0.73;69.63;101197.45;1719929;83;20995;-82
2022/12/01 12:13:17;;;;;;;12.35;9.18;;;;;;;0.60;69.68;101198.31;1682360;85;21054;-80
2022/12/01 12:16:19;;;;;;;14.63;8.23;;;;;;;0.61;69.68;101197.83;1709823;83;21165;-81
2022/12/01 12:19:14;;;;;;;12.10;6.78;;;;;;;0.65;69.44;101195.22;1699479;82;20967;-77
2022/12/01 12:22:08;;;;;;;12.40;7.45;;;;;;;0.66;68.74;101199.53;1737353;80;21007;-76
2022/12/01 12:24:56;;;;;;;11.55;6.95;;;;;;;0.60;68.97;101193.50;1737685;80;21090;-75
2022/12/01 12:28:00;;;;;;;7.92;5.62;;;;;;;0.56;69.41;101193.46;1744720;80;21027;-74
2022/12/01 12:30:28;;;;;;;18.35;7.87;;;;;;;0.54;69.37;101194.92;1753558;80;21134;-74
2022/12/01 12:33:16;;;;;;;11.73;7.12;;;;;;;0.53;69.36;101194.58;1758478;80;21027;-74
2022/12/01 12:36:18;;;;;;;10.00;7.03;;;;;;;0.55;69.75;101191.30;1676455;82;21250;-70
2022/12/01 12:39:29;;;;;;;10.15;6.67;;;;;;;0.61;69.70;101191.20;1749166;80;21027;-69
2022/12/01 12:41:56;;;;;;;13.25;9.15;;;;;;;0.66;69.63;101194.23;1770494;80;21114;-71
2022/12/01 12:44:46;;;;;;;14.68;8.80;;;;;;;0.61;69.84;101194.69;1705725;82;21136;-73
2022/12/01 12:47:21;;;;;;;9.55;6.37;;;;;;;0.56;69.75;101194.78;1747179;80;21044;-78
2022/12/01 12:50:23;;;;;;;13.68;9.13;;;;;;;0.57;70.07;101195.97;1740781;82;21075;-75
2022/12/01 12:52:55;;;;;;;;;;;;;;;0.56;70.03;101199.59;1739323;80;21003;-73
2022/12/01 12:55:38;;;;;;;12.07;8.38;;;;;;;0.59;70.44;101205.06;1751271;80;20218;-72
2022/12/01 12:58:32;;;;;;;13.50;8.90;;;;;;;0.67;70.25;101206.50;1742917;81;21163;-75
2022/12/01 13:01:14;;;;;;;;;;;;;;;0.71;70.63;101202.09;1748975;80;21019;-72
2022/12/01 13:04:03;;;;;;;14.70;9.53;;;;;;;0.75;70.36;101207.91;1756676;80;20142;-72
2022/12/01 13:07:06;;;;;;;17.75;10.58;;;;;;;0.71;70.47;101206.05;1740089;80;21495;-70
2022/12/01 13:09:41;;;;;;;13.72;9.33;;;;;;;0.69;70.55;101209.81;1756163;80;21071;-74
2022/12/01 13:12:14;;;;;;;15.85;8.98;;;;;;;0.64;70.73;101207.62;1751309;80;21482;-71
2022/12/01 13:14:48;;;;;;;12.73;9.05;;;;;;;0.60;70.89;101211.55;1745216;80;20988;-70
2022/12/01 13:17:29;;;;;;;12.82;8.48;;;;;;;0.55;70.64;101207.19;1749163;81;21618;-72
2022/12/01 13:19:56;;;;;;;13.58;8.80;;;;;;;0.53;70.69;101204.36;1748287;80;20998;-72
2022/12/01 13:22:30;;;;;;;17.48;10.38;;;;;;;0.56;71.03;101198.27;1748176;82;21066;-72
2022/12/01 13:24:56;;;;;;;13.25;8.33;;;;;;;0.58;70.74;101204.72;1725455;82;21101;-78
2022/12/01 13:27:24;;;;;;;18.05;11.93;;;;;;;0.56;70.58;101201.41;1760220;80;20938;-71
2022/12/01 13:29:53;;;;;;;26.97;10.43;;;;;;;0.55;70.70;101204.53;1740284;80;21014;-72
2022/12/01 13:32:39;;;;;;;24.70;12.33;;;;;;;0.51;70.60;101203.66;1762963;80;21037;-71
2022/12/01 13:35:26;;;;;;;22.02;10.75;;;;;;;0.48;70.72;101200.00;1742327;82;21102;-75
2022/12/01 13:37:58;;;;;;;23.73;13.35;;;;;;;0.47;70.73;101197.84;1743324;80;21147;-76
2022/12/01 13:40:28;;;;;;;23.10;13.03;;;;;;;0.48;70.80;101199.48;1721436;82;21111;-72
2022/12/01 13:43:04;;;;;;;20.48;10.85;;;;;;;0.49;70.84;101197.67;1739864;80;20958;-71
2022/12/01 13:45:34;;;;;;;17.30;10.43;;;;;;;0.54;70.97;101196.25;1740808;82;21563;-73
2022/12/01 13:48:06;;;;;;;25.00;11.00;;;;;;;0.51;70.68;101191.27;1691338;83;21653;-76
2022/12/01 13:50:45;;;;;;;16.40;10.15;;;;;;;0.45;70.82;101190.52;1757444;80;21724;-73
2022/12/01 13:53:34;;;;;;;22.15;11.68;;;;;;;0.39;71.18;101187.97;1751334;80;21097;-72
2022/12/01 13:56:17;;;;;;;17.90;11.53;;;;;;;0.34;71.50;101195.52;1777819;80;20976;-71
2022/12/01 13:58:52;;;;;;;15.98;8.95;;;;;;;0.36;71.67;101190.08;1728467;80;20973;-76
2022/12/01 14:01:28;;;;;;;17.85;12.35;;;;;;;0.36;71.56;101192.25;1723091;82;20954;-70
2022/12/01 14:04:11;;;;;;;16.23;10.78;;;;;;;0.35;71.73;101197.19;1716829;82;21208;-71
2022/12/01 14:06:49;;;;;;;11.75;8.20;;;;;;;0.32;71.67;101192.20;1700179;82;21093;-73
2022/12/01 14:09:25;;;;;;;21.82;11.65;;;;;;;0.26;71.37;101184.84;1752685;80;20975;-79
2022/12/01 14:12:02;;;;;;;15.90;10.20;;;;;;;0.24;71.70;101182.02;1676467;84;21276;-72
2022/12/01 14:14:39;;;;;;;14.35;8.93;;;;;;;0.25;71.84;101184.98;1753101;80;21563;-72
2022/12/01 14:17:06;;;;;;;15.72;8.20;;;;;;;0.27;72.04;101191.80;1772838;80;21775;-77
2022/12/01 14:19:50;;;;;;;12.90;7.62;;;;;;;0.31;71.86;101190.53;1749363;82;21037;-77
2022/12/01 14:22:50;;;;;;;13.88;7.70;;;;;;;0.28;71.83;101194.80;1748518;81;20959;-76
2022/12/01 14:25:25;;;;;;;16.15;9.88;;;;;;;0.27;72.16;101187.84;1718133;82;22229;-80
2022/12/01 18:14:27;;;;;;;32.33;12.27;;;;;;;-0.92;76.31;101155.05;1711461;82;22700;-72
2022/12/01 18:16:54;;;;;;;19.10;10.90;;;;;;;-0.89;76.16;101144.19;1677605;83;21005;-79
2022/12/01 18:19:20;;;;;;;26.90;13.33;;;;;;;-0.84;75.66;101139.80;1679950;83;21136;-78
2022/12/01 18:21:49;;;;;;;28.43;13.53;;;;;;;-0.83;75.33;101150.23;1681407;85;21673;-73
2022/12/01 18:24:16;;;;;;;24.37;12.33;;;;;;;-0.77;75.51;101145.72;1681889;85;21518;-75
2022/12/01 18:26:43;;;;;;;18.37;10.93;;;;;;;-0.76;75.10;101148.69;1669756;83;21082;-75
2022/12/01 18:29:17;;;;;;;21.53;12.57;;;;;;;-0.75;74.92;101153.48;1670093;85;21013;-76
2022/12/01 18:31:44;;;;;;;24.10;12.67;;;;;;;-0.75;74.80;101154.32;1654115;86;22882;-75
2022/12/01 18:34:10;;;;;;;22.07;11.70;;;;;;;-0.70;74.80;101152.58;1654364;86;21066;-75
2022/12/01 18:36:39;;;;;;;29.53;11.67;;;;;;;-0.72;74.33;101154.55;1670551;83;21002;-70
2022/12/01 18:39:07;;;;;;;18.17;12.40;;;;;;;-0.77;74.30;101153.65;1680006;83;21058;-81
2022/12/01 18:41:36;;;;;;;24.20;11.23;;;;;;;-0.76;74.11;101150.00;1674982;83;21126;-77
2022/12/01 18:44:03;;;;;;;25.30;11.50;;;;;;;-0.75;74.04;101149.52;1669684;84;21262;-75
2022/12/01 18:46:30;;;;;;;19.37;9.90;;;;;;;-0.80;73.90;101149.11;1682958;83;21038;-78
2022/12/01 18:49:00;;;;;;;18.43;9.47;;;;;;;-0.75;73.85;101153.48;1680827;85;21120;-71
2022/12/01 18:51:25;;;;;;;25.87;11.00;;;;;;;-0.79;73.44;101146.82;1647120;83;21586;-74
2022/12/01 18:53:56;;;;;;;12.63;8.13;;;;;;;-0.81;73.24;101155.36;1678412;83;21767;-78
2022/12/01 18:56:22;;;;;;;30.73;9.10;;;;;;;-0.86;73.19;101149.17;1680632;85;21783;-77
2022/12/01 18:59:01;;;;;;;16.20;9.53;;;;;;;-0.89;73.25;101144.19;1668680;85;21510;-75
2022/12/01 19:01:34;;;;;;;16.80;10.87;;;;;;;-0.83;73.29;101151.56;1652232;85;21247;-78
2022/12/01 19:04:00;;;;;;;22.10;10.30;;;;;;;-0.84;72.98;101152.53;1617393;87;21046;-73
2022/12/01 19:06:27;;;;;;;28.33;13.37;;;;;;;-0.88;72.87;101153.78;1600714;88;21134;-74
2022/12/01 19:08:54;;;;;;;16.43;9.57;;;;;;;-0.84;73.10;101148.56;1639665;85;21209;-73
2022/12/01 19:11:21;;;;;;;19.10;9.73;;;;;;;-0.78;72.68;101153.78;1643248;86;21041;-70
2022/12/01 19:13:47;;;;;;;19.97;11.03;;;;;;;-0.80;72.10;101155.71;1659839;84;20948;-72
2022/12/01 19:16:16;;;;;;;12.83;8.00;;;;;;;-0.82;71.96;101157.20;1658613;84;20971;-79
2022/12/01 19:18:46;;;;;;;15.17;8.63;;;;;;;-0.78;72.02;101152.45;1666806;84;21071;-80
2022/12/01 19:21:17;;;;;;;15.57;9.03;;;;;;;-0.81;71.04;101160.64;1665310;86;21155;-84
2022/12/01 19:23:51;;;;;;;18.07;9.17;;;;;;;-0.82;71.42;101153.72;1675618;84;21072;-76
2022/12/01 19:26:20;;;;;;;25.00;10.23;;;;;;;-0.79;71.18;101162.19;1667364;85;21689;-80
2022/12/01 19:28:47;;;;;;;18.05;10.45;;;;;;;-0.81;70.55;101158.84;1655932;84;20983;-76
2022/12/01 19:31:22;;;;;;;28.10;9.83;;;;;;;-0.82;70.36;101159.84;1641384;86;21065;-75
2022/12/01 19:33:50;;;;;;;23.17;13.00;;;;;;;-0.79;70.49;101159.55;1603803;89;21356;-76
2022/12/01 19:36:21;;;;;;;23.67;11.03;;;;;;;-0.79;69.79;101164.83;1603832;89;21106;-73
2022/12/01 19:38:48;;;;;;;21.27;11.47;;;;;;;-0.77;69.86;101164.21;1603389;89;21113;-69
2022/12/01 19:41:15;;;;;;;27.80;10.70;;;;;;;-0.73;69.45;101160.80;1607974;88;21002;-84
2022/12/01 19:43:44;;;;;;;17.65;10.68;;;;;;;-0.77;69.36;101165.53;1623165;87;21058;-85
2022/12/01 19:46:18;;;;;;;17.17;9.55;;;;;;;-0.76;69.36;101159.73;1627258;86;21329;-81
2022/12/01 19:48:45;;;;;;;14.40;9.13;;;;;;;-0.82;69.41;101160.32;1612028;88;21086;-83
2022/12/01 19:51:17;;;;;;;20.00;10.50;;;;;;;-0.83;69.82;101161.29;1626145;88;21108;-85
2022/12/01 19:53:46;;;;;;;18.20;10.95;;;;;;;-0.87;69.74;101157.27;1623488;88;28719;-84
2022/12/01 19:56:12;;;;;;;17.27;10.73;;;;;;;-0.91;69.87;101160.16;1639837;87;21674;-81
2022/12/01 19:58:39;;;;;;;20.15;9.15;;;;;;;-0.92;69.55;101159.00;1641344;87;21851;-81
2022/12/01 20:01:13;;;;;;;13.70;6.60;;;;;;;-0.92;69.51;101164.28;1620644;87;21064;-82
2022/12/01 20:03:43;;;;;;;12.23;6.90;;;;;;;-0.93;69.74;101164.77;1635417;87;21014;-78
2022/12/01 20:06:15;;;;;;;9.03;6.60;;;;;;;-0.96;69.45;101152.34;1616932;87;21134;-82
2022/12/01 20:08:41;;;;;;;11.80;8.23;;;;;;;-0.99;69.54;101156.08;1622619;87;21043;-71
2022/12/01 20:11:09;;;;;;;14.97;8.80;;;;;;;-0.98;69.49;101158.23;1619828;87;21199;-77
2022/12/01 20:13:38;;;;;;;15.67;8.07;;;;;;;-0.95;69.74;101151.34;1620434;86;21062;-73
2022/12/01 20:16:11;;;;;;;13.13;7.37;;;;;;;-0.91;69.47;101163.28;1619479;87;21613;-76
2022/12/01 20:18:38;;;;;;;11.83;7.03;;;;;;;-0.89;69.36;101164.83;1624246;87;21692;-77
2022/12/01 20:21:08;;;;;;;19.53;6.60;;;;;;;-0.94;69.23;101162.26;1619547;88;21132;-77
2022/12/01 20:23:34;;;;;;;9.60;7.43;;;;;;;-0.94;69.43;101163.58;1611410;87;21933;-75
2022/12/01 20:26:03;;;;;;;11.57;8.33;;;;;;;-0.95;69.22;101163.23;1619261;87;21146;-81
2022/12/01 20:28:31;;;;;;;20.73;9.60;;;;;;;-0.94;69.06;101165.73;1619678;87;21588;-79
2022/12/01 20:30:57;;;;;;;19.47;11.17;;;;;;;-0.96;68.92;101161.06;1630010;87;21147;-84
2022/12/01 20:33:24;;;;;;;14.30;9.03;;;;;;;-0.98;68.89;101160.88;1626096;88;21095;-79
2022/12/01 20:35:51;;;;;;;9.93;7.17;;;;;;;-1.00;68.97;101162.81;1641386;87;21610;-74
2022/12/01 20:38:17;;;;;;;10.13;6.43;;;;;;;-1.01;68.39;101163.81;1649868;86;21508;-77
2022/12/01 20:40:45;;;;;;;9.77;6.10;;;;;;;-1.03;68.73;101167.05;1649605;87;21119;-79
2022/12/01 20:43:13;;;;;;;10.97;7.23;;;;;;;-1.02;68.66;101169.56;1639183;87;21575;-87
2022/12/01 20:45:39;;;;;;;13.17;7.00;;;;;;;-1.02;68.60;101166.09;1648347;87;21069;-83
2022/12/01 20:48:06;;;;;;;11.07;6.13;;;;;;;-0.98;68.67;101174.91;1647936;87;21826;-81
2022/12/01 20:50:32;;;;;;;10.48;6.12;;;;;;;-1.02;67.89;101174.02;1647690;87;21046;-85
2022/12/01 20:53:01;;;;;;;8.57;6.10;;;;;;;-1.07;67.75;101169.63;1598930;89;21104;-87
2022/12/01 20:55:28;;;;;;;13.40;7.50;;;;;;;-1.10;67.90;101177.81;1647264;87;21082;-77
2022/12/01 20:57:56;;;;;;;9.93;7.80;;;;;;;-1.16;67.89;101171.78;1649787;87;21015;-77
2022/12/01 21:00:22;;;;;;;15.97;8.90;;;;;;;-1.14;68.02;101177.26;1625339;87;21043;-79
2022/12/01 21:02:49;;;;;;;14.00;7.63;;;;;;;-1.13;67.96;101184.22;1641104;87;22257;-77
2022/12/01 21:05:15;;;;;;;8.37;6.50;;;;;;;-1.10;67.70;101181.28;1641117;86;21603;-76
2022/12/01 21:07:42;;;;;;;7.13;6.00;;;;;;;-1.12;67.82;101178.45;1611943;88;21005;-77
2022/12/01 21:10:09;;;;;;;9.67;6.57;;;;;;;-1.06;67.86;101180.06;1649053;86;21623;-70
2022/12/01 21:15:30;;;;;;;18.73;7.90;;;;;;;-1.01;67.24;101180.45;1644833;86;21557;-74
2022/12/01 21:18:10;;;;;;;12.07;8.10;;;;;;;-0.95;66.87;101179.91;1640885;87;20989;-72
2022/12/01 21:20:41;;;;;;;15.60;9.43;;;;;;;-1.01;66.27;101179.13;1640127;87;21605;-74
2022/12/01 21:23:16;;;;;;;18.43;11.87;;;;;;;-1.07;66.25;101180.19;1640206;87;21581;-77
2022/12/01 21:25:42;;;;;;;13.97;9.47;;;;;;;-1.04;66.50;101185.19;1631663;87;21136;-72
2022/12/01 21:28:24;;;;;;;13.77;8.53;;;;;;;-1.04;65.95;101178.58;1647063;86;21095;-71
2022/12/01 21:31:11;;;;;;;11.83;6.87;;;;;;;-1.17;65.52;101174.91;1654813;86;21115;-76
2022/12/01 21:33:40;;;;;;;11.20;7.80;;;;;;;-1.25;65.86;101177.41;1654369;86;21070;-72
2022/12/01 21:36:19;;;;;;;11.80;7.30;;;;;;;-1.25;65.98;101181.85;1625427;86;21675;-74
2022/12/01 21:38:49;;;;;;;10.80;6.97;;;;;;;-1.24;65.91;101179.05;1640431;87;21896;-72
2022/12/01 21:41:24;;;;;;;8.30;5.97;;;;;;;-1.28;65.70;101178.98;1640704;87;21071;-74
2022/12/01 21:43:51;;;;;;;9.77;6.70;;;;;;;-1.24;65.70;101177.73;1640357;87;21068;-74
2022/12/01 21:46:17;;;;;;;10.87;6.87;;;;;;;-1.22;65.74;101182.40;1630729;86;20984;-74
2022/12/01 21:48:45;;;;;;;9.83;8.37;;;;;;;-1.25;65.38;101179.21;1628927;87;21139;-75
2022/12/01 21:51:21;;;;;;;10.30;6.93;;;;;;;-1.25;65.55;101176.09;1640460;87;21052;-71
2022/12/01 21:53:49;;;;;;;7.53;5.27;;;;;;;-1.26;65.31;101177.53;1638273;87;21068;-74
2022/12/01 21:56:27;;;;;;;13.83;6.13;;;;;;;-1.24;65.40;101176.89;1638013;87;21033;-76
2022/12/01 21:58:58;;;;;;;11.43;6.93;;;;;;;-1.26;65.35;101182.33;1639875;87;21033;-72
2022/12/01 22:01:29;;;;;;;8.97;6.23;;;;;;;-1.21;65.35;101178.80;1640919;86;21045;-72
2022/12/01 22:03:58;;;;;;;9.77;7.13;;;;;;;-1.20;65.10;101179.63;1639184;86;21156;-77
2022/12/01 22:06:36;;;;;;;13.10;6.50;;;;;;;-1.16;64.96;101169.98;1637394;87;21081;-73